createdAt,value
2019-05-17T06:00:34.945Z,10.76
2019-05-17T06:01:34.951Z,10.78
2019-05-17T06:02:34.897Z,10.80
2019-05-17T06:03:34.890Z,10.80
2019-05-17T06:04:34.872Z,10.78
2019-05-17T06:05:34.894Z,10.78
2019-05-17T06:06:34.878Z,10.74
2019-05-17T06:07:34.860Z,10.77
2019-05-17T06:08:34.830Z,10.80
2019-05-17T06:09:34.826Z,10.73
2019-05-17T06:10:34.812Z,10.77
2019-05-17T06:11:34.825Z,10.77
2019-05-17T06:12:34.830Z,10.76
2019-05-17T06:13:34.782Z,10.78
2019-05-17T06:14:34.767Z,10.77
2019-05-17T06:15:34.790Z,10.76
2019-05-17T06:16:34.755Z,10.78
2019-05-17T06:17:34.761Z,10.77
2019-05-17T06:18:34.720Z,10.78
2019-05-17T06:19:34.712Z,10.73
2019-05-17T06:20:34.739Z,10.77
2019-05-17T06:21:34.689Z,10.83
2019-05-17T06:22:34.681Z,10.74
2019-05-17T06:23:34.711Z,10.89
2019-05-17T06:24:34.660Z,10.78
2019-05-17T06:25:34.649Z,10.86
2019-05-17T06:26:34.671Z,10.84
2019-05-17T06:27:34.631Z,10.81
2019-05-17T06:28:34.649Z,10.84
2019-05-17T06:29:34.639Z,10.88
2019-05-17T06:30:34.601Z,10.83
2019-05-17T06:31:37.019Z,10.88
2019-05-17T06:32:34.575Z,10.81
2019-05-17T06:33:35.103Z,10.74
2019-05-17T06:34:34.565Z,10.83
2019-05-17T06:35:34.546Z,10.77
2019-05-17T06:36:34.531Z,10.88
2019-05-17T06:37:34.522Z,10.84
2019-05-17T06:38:34.546Z,10.83
2019-05-17T06:39:34.496Z,10.89
2019-05-17T06:40:34.496Z,10.89
2019-05-17T06:41:34.485Z,10.91
2019-05-17T06:42:40.489Z,10.92
2019-05-17T06:43:38.374Z,10.91
2019-05-17T06:44:34.448Z,10.89
2019-05-17T06:45:34.467Z,10.94
2019-05-17T06:46:34.434Z,10.91
2019-05-17T06:47:34.418Z,10.86
2019-05-17T06:48:34.416Z,10.76
2019-05-17T06:49:34.432Z,10.83
2019-05-17T06:50:34.416Z,10.83
2019-05-17T06:51:34.368Z,10.78
2019-05-17T06:52:34.372Z,10.80
2019-05-17T06:53:34.357Z,10.76
2019-05-17T06:54:34.356Z,10.81
2019-05-17T06:55:34.362Z,10.84
2019-05-17T06:56:34.337Z,10.70
2019-05-17T06:57:34.434Z,10.74
2019-05-17T06:58:34.295Z,10.73
2019-05-17T06:59:34.321Z,10.77
2019-05-17T07:00:34.273Z,10.76
2019-05-17T07:01:34.272Z,10.73
2019-05-17T07:02:36.040Z,10.74
2019-05-17T07:03:34.244Z,10.76
2019-05-17T07:04:34.226Z,10.73
2019-05-17T07:05:34.225Z,10.76
2019-05-17T07:06:34.217Z,10.77
2019-05-17T07:07:34.224Z,10.74
2019-05-17T07:08:34.185Z,10.74
2019-05-17T07:09:36.035Z,10.73
2019-05-17T07:10:34.172Z,10.80
2019-05-17T07:11:34.204Z,10.78
2019-05-17T07:12:34.147Z,10.77
2019-05-17T07:13:34.134Z,10.76
2019-05-17T07:14:34.127Z,10.62
2019-05-17T07:15:43.806Z,10.76
2019-05-17T07:16:35.137Z,10.80
2019-05-17T07:17:34.099Z,10.70
2019-05-17T07:18:34.080Z,10.59
2019-05-17T07:19:34.070Z,10.58
2019-05-17T07:20:34.072Z,10.59
2019-05-17T07:21:34.088Z,10.63
2019-05-17T07:22:34.046Z,10.52
2019-05-17T07:23:34.032Z,10.36
2019-05-17T07:24:34.019Z,10.43
2019-05-17T07:25:34.054Z,10.43
2019-05-17T07:26:34.001Z,10.42
2019-05-17T07:27:41.256Z,10.39
2019-05-17T07:28:35.018Z,10.30
2019-05-17T07:29:33.967Z,10.37
2019-05-17T07:30:33.960Z,10.32
2019-05-17T07:31:33.949Z,10.33
2019-05-17T07:32:33.965Z,10.32
2019-05-17T07:33:33.917Z,10.30
2019-05-17T07:34:33.944Z,10.32
2019-05-17T07:35:33.903Z,10.33
2019-05-17T07:36:33.917Z,10.25
2019-05-17T07:37:33.879Z,10.25
2019-05-17T07:38:33.876Z,10.19
2019-05-17T07:39:33.886Z,10.17
2019-05-17T07:40:33.842Z,10.19
2019-05-17T07:41:33.858Z,10.18
2019-05-17T07:42:33.822Z,10.19
2019-05-17T07:43:33.818Z,10.19
2019-05-17T07:44:33.807Z,10.26
2019-05-17T07:45:33.789Z,10.21
2019-05-17T07:46:33.815Z,10.25
2019-05-17T07:47:33.818Z,10.26
2019-05-17T07:48:33.792Z,10.33
2019-05-17T07:49:33.755Z,10.30
2019-05-17T07:50:33.737Z,10.32
2019-05-17T07:51:33.752Z,10.33
2019-05-17T07:52:33.753Z,10.32
2019-05-17T07:53:33.704Z,10.32
2019-05-17T07:54:33.715Z,10.28
2019-05-17T07:55:33.710Z,10.36
2019-05-17T07:56:33.674Z,10.26
2019-05-17T07:57:33.698Z,10.36
2019-05-17T07:58:33.649Z,10.36
2019-05-17T07:59:33.641Z,10.26
2019-05-17T08:00:33.634Z,10.36
2019-05-17T08:01:34.356Z,10.36
2019-05-17T08:02:33.657Z,10.44
2019-05-17T08:03:33.595Z,10.39
2019-05-17T08:04:33.687Z,10.44
2019-05-17T08:05:33.586Z,10.42
2019-05-17T08:06:33.584Z,10.46
2019-05-17T08:07:33.581Z,10.36
2019-05-17T08:08:33.538Z,10.46
2019-05-17T08:09:33.553Z,10.47
2019-05-17T08:10:33.535Z,10.44
2019-05-17T08:11:33.521Z,10.44
2019-05-17T08:12:33.566Z,10.46
2019-05-17T08:13:33.864Z,10.46
2019-05-17T08:14:33.705Z,10.42
2019-05-17T08:15:33.474Z,10.36
2019-05-17T08:16:33.467Z,10.42
2019-05-17T08:17:33.477Z,10.56
2019-05-17T08:18:33.438Z,10.46
2019-05-17T08:19:33.443Z,10.47
2019-05-17T08:20:33.419Z,10.51
2019-05-17T08:21:33.403Z,10.47
2019-05-17T08:22:33.447Z,10.46
2019-05-17T08:23:33.387Z,10.51
2019-05-17T08:24:33.371Z,10.53
2019-05-17T08:25:33.361Z,10.52
2019-05-17T08:26:33.399Z,10.46
2019-05-17T08:27:33.366Z,10.47
2019-05-17T08:28:33.324Z,10.47
2019-05-17T08:29:33.389Z,10.40
2019-05-17T08:30:33.304Z,10.43
2019-05-17T08:31:33.342Z,10.42
2019-05-17T08:32:33.289Z,10.44
2019-05-17T08:33:33.288Z,10.47
2019-05-17T08:34:33.286Z,10.55
2019-05-17T08:35:33.260Z,10.53
2019-05-17T08:36:33.273Z,10.56
2019-05-17T08:37:33.262Z,10.62
2019-05-17T08:38:33.222Z,10.55
2019-05-17T08:39:33.233Z,10.62
2019-05-17T08:40:33.205Z,10.63
2019-05-17T08:41:36.463Z,10.62
2019-05-17T08:42:33.177Z,10.59
2019-05-17T08:43:42.542Z,10.66
2019-05-17T08:44:34.219Z,10.55
2019-05-17T08:45:33.149Z,10.65
2019-05-17T08:46:33.174Z,10.59
2019-05-17T08:47:33.127Z,10.62
2019-05-17T08:48:33.129Z,10.59
2019-05-17T08:49:33.100Z,10.65
2019-05-17T08:50:33.130Z,10.60
2019-05-17T08:51:33.139Z,10.65
2019-05-17T08:52:33.075Z,10.68
2019-05-17T08:53:33.180Z,10.59
2019-05-17T08:54:33.089Z,10.59
2019-05-17T08:55:33.041Z,10.66
2019-05-17T08:56:33.023Z,10.59
2019-05-17T08:57:33.017Z,10.70
2019-05-17T08:58:33.076Z,10.59
2019-05-17T08:59:33.001Z,10.58
2019-05-17T09:00:32.993Z,10.59
2019-05-17T09:01:33.011Z,10.63
2019-05-17T09:02:32.963Z,10.58
2019-05-17T09:03:32.953Z,10.62
2019-05-17T09:04:32.953Z,10.63
2019-05-17T09:05:32.931Z,10.56
2019-05-17T09:06:32.957Z,10.62
2019-05-17T09:07:32.912Z,10.62
2019-05-17T09:08:32.916Z,10.70
2019-05-17T09:09:32.888Z,10.66
2019-05-17T09:10:32.889Z,10.56
2019-05-17T09:11:32.896Z,10.60
2019-05-17T09:12:32.857Z,10.74
2019-05-17T09:13:32.848Z,10.73
2019-05-17T09:14:32.831Z,10.66
2019-05-17T09:15:32.876Z,10.77
2019-05-17T09:16:32.821Z,10.78
2019-05-17T09:17:32.802Z,10.77
2019-05-17T09:18:32.785Z,10.80
2019-05-17T09:19:32.787Z,10.88
2019-05-17T09:20:32.797Z,10.86
2019-05-17T09:21:32.773Z,10.89
2019-05-17T09:22:32.781Z,10.94
2019-05-17T09:23:32.735Z,10.91
2019-05-17T09:24:32.748Z,11.01
2019-05-17T09:25:32.718Z,10.99
2019-05-17T09:26:32.703Z,11.06
2019-05-17T09:27:32.697Z,11.02
2019-05-17T09:28:32.717Z,11.14
2019-05-17T09:29:32.677Z,11.09
2019-05-17T09:30:32.662Z,11.09
2019-05-17T09:31:32.650Z,11.07
2019-05-17T09:32:32.680Z,11.11
2019-05-17T09:33:32.650Z,11.10
2019-05-17T09:34:32.630Z,11.11
2019-05-17T09:35:32.617Z,11.13
2019-05-17T09:36:32.605Z,11.17
2019-05-17T09:37:32.620Z,11.11
2019-05-17T09:38:32.575Z,11.13
2019-05-17T09:39:32.809Z,11.17
2019-05-17T09:40:32.559Z,11.21
2019-05-17T09:41:32.540Z,11.27
2019-05-17T09:42:32.531Z,11.21
2019-05-17T09:43:32.571Z,11.27
2019-05-17T09:44:32.540Z,11.25
2019-05-17T09:45:32.501Z,11.34
2019-05-17T09:46:32.506Z,11.34
2019-05-17T09:47:32.506Z,11.34
2019-05-17T09:48:32.505Z,11.50
2019-05-17T09:49:32.458Z,11.44
2019-05-17T09:50:32.507Z,11.52
2019-05-17T09:51:32.449Z,11.53
2019-05-17T09:52:32.427Z,11.50
2019-05-17T09:53:32.445Z,11.47
2019-05-17T09:54:42.288Z,11.47
2019-05-17T09:55:33.417Z,11.46
2019-05-17T09:56:32.411Z,11.44
2019-05-17T09:57:32.378Z,11.49
2019-05-17T09:58:32.360Z,11.49
2019-05-17T09:59:32.416Z,11.50
2019-05-17T10:00:32.364Z,11.59
2019-05-17T10:01:32.352Z,11.53
2019-05-17T10:02:32.344Z,11.61
2019-05-17T10:03:32.300Z,11.57
2019-05-17T10:04:32.303Z,11.64
2019-05-17T10:05:32.289Z,11.64
2019-05-17T10:06:32.311Z,11.64
2019-05-17T10:07:32.278Z,11.70
2019-05-17T10:08:32.272Z,11.70
2019-05-17T10:09:32.251Z,11.82
2019-05-17T10:10:32.238Z,11.87
2019-05-17T10:11:32.283Z,11.85
2019-05-17T10:12:32.215Z,11.90
2019-05-17T10:13:32.222Z,11.97
2019-05-17T10:14:32.198Z,12.01
2019-05-17T10:15:32.173Z,12.05
2019-05-17T10:16:32.195Z,11.99
2019-05-17T10:17:32.199Z,11.97
2019-05-17T10:18:32.155Z,11.97
2019-05-17T10:19:32.130Z,12.06
2019-05-17T10:20:32.125Z,12.13
2019-05-17T10:21:32.141Z,12.06
2019-05-17T10:22:32.104Z,12.04
2019-05-17T10:23:32.090Z,12.11
2019-05-17T10:24:37.881Z,12.06
2019-05-17T10:25:33.071Z,12.09
2019-05-17T10:26:32.091Z,12.08
2019-05-17T10:27:32.069Z,12.12
2019-05-17T10:28:32.032Z,12.15
2019-05-17T10:29:32.024Z,12.15
2019-05-17T10:30:32.010Z,12.16
2019-05-17T10:31:32.009Z,12.24
2019-05-17T10:32:32.020Z,12.21
2019-05-17T10:33:31.981Z,12.23
2019-05-17T10:34:31.965Z,12.27
2019-05-17T10:35:31.960Z,12.23
2019-05-17T10:36:31.958Z,12.24
2019-05-17T10:37:31.971Z,12.27
2019-05-17T10:38:31.928Z,12.30
2019-05-17T10:39:32.944Z,12.33
2019-05-17T10:40:31.904Z,12.34
2019-05-17T10:41:31.894Z,12.34
2019-05-17T10:42:31.919Z,12.31
2019-05-17T10:43:31.928Z,12.29
2019-05-17T10:44:43.091Z,12.33
2019-05-17T10:45:32.847Z,12.30
2019-05-17T10:46:31.846Z,12.39
2019-05-17T10:47:31.831Z,12.34
2019-05-17T10:48:31.855Z,12.37
2019-05-17T10:49:31.813Z,12.24
2019-05-17T10:50:31.846Z,12.21
2019-05-17T10:51:31.821Z,12.30
2019-05-17T10:52:31.814Z,12.29
2019-05-17T10:53:31.774Z,12.34
2019-05-17T10:54:31.753Z,12.24
2019-05-17T10:55:31.744Z,12.23
2019-05-17T10:56:31.766Z,12.27
2019-05-17T10:57:31.756Z,12.38
2019-05-17T10:58:31.720Z,12.29
2019-05-17T10:59:31.698Z,12.39
2019-05-17T11:00:31.703Z,12.39
2019-05-17T11:01:31.683Z,12.41
2019-05-17T11:02:31.692Z,12.39
2019-05-17T11:03:31.689Z,12.34
2019-05-17T11:04:33.444Z,12.33
2019-05-17T11:05:31.640Z,12.41
2019-05-17T11:06:31.638Z,12.34
2019-05-17T11:07:31.635Z,12.44
2019-05-17T11:08:31.652Z,12.39
2019-05-17T11:09:31.663Z,12.37
2019-05-17T11:10:31.587Z,12.38
2019-05-17T11:11:31.577Z,12.37
2019-05-17T11:12:31.564Z,12.34
2019-05-17T11:13:31.611Z,12.34
2019-05-17T11:14:31.545Z,12.38
2019-05-17T11:15:31.529Z,12.34
2019-05-17T11:16:31.527Z,12.39
2019-05-17T11:17:31.517Z,12.46
2019-05-17T11:18:31.583Z,12.46
2019-05-17T11:19:31.530Z,12.49
2019-05-17T11:20:31.487Z,12.46
2019-05-17T11:21:31.463Z,12.41
2019-05-17T11:22:31.543Z,12.48
2019-05-17T11:23:31.495Z,12.42
2019-05-17T11:24:31.476Z,12.45
2019-05-17T11:25:31.460Z,12.54
2019-05-17T11:26:31.407Z,12.42
2019-05-17T11:27:31.424Z,12.46
2019-05-17T11:28:31.419Z,12.46
2019-05-17T11:29:31.388Z,12.48
2019-05-17T11:30:31.472Z,12.48
2019-05-17T11:31:31.364Z,12.59
2019-05-17T11:32:31.397Z,12.56
2019-05-17T11:33:31.357Z,12.51
2019-05-17T11:34:31.330Z,12.59
2019-05-17T11:35:31.350Z,12.60
2019-05-17T11:36:32.877Z,12.59
2019-05-17T11:37:31.319Z,12.69
2019-05-17T11:38:31.311Z,12.70
2019-05-17T11:39:31.890Z,12.66
2019-05-17T11:40:31.287Z,12.62
2019-05-17T11:41:31.288Z,12.71
2019-05-17T11:42:31.248Z,12.74
2019-05-17T11:43:31.305Z,12.81
2019-05-17T11:44:31.219Z,12.77
2019-05-17T11:45:32.805Z,12.79
2019-05-17T11:46:36.091Z,12.78
2019-05-17T11:47:32.184Z,12.79
2019-05-17T11:48:31.198Z,12.84
2019-05-17T11:49:31.168Z,12.85
2019-05-17T11:50:31.175Z,12.84
2019-05-17T11:51:31.140Z,12.85
2019-05-17T11:52:31.169Z,12.89
2019-05-17T11:53:31.122Z,12.93
2019-05-17T11:54:31.107Z,12.95
2019-05-17T11:55:31.145Z,13.07
2019-05-17T11:56:31.085Z,13.00
2019-05-17T11:57:31.127Z,13.03
2019-05-17T11:58:31.336Z,13.12
2019-05-17T11:59:31.127Z,13.15
2019-05-17T12:00:31.040Z,13.11
2019-05-17T12:01:31.040Z,13.21
2019-05-17T12:02:31.015Z,13.27
2019-05-17T12:03:31.016Z,13.30
2019-05-17T12:04:31.033Z,13.29
2019-05-17T12:05:31.020Z,13.40
2019-05-17T12:06:31.779Z,13.41
2019-05-17T12:07:30.963Z,13.25
2019-05-17T12:08:32.079Z,13.46
2019-05-17T12:09:37.387Z,13.51
2019-05-17T12:10:31.978Z,13.56
2019-05-17T12:11:30.944Z,13.56
2019-05-17T12:12:30.913Z,13.56
2019-05-17T12:13:30.902Z,13.67
2019-05-17T12:14:30.895Z,13.71
2019-05-17T12:15:44.452Z,13.71
2019-05-17T12:16:31.907Z,13.79
2019-05-17T12:17:30.854Z,13.77
2019-05-17T12:18:30.844Z,13.74
2019-05-17T12:19:30.916Z,13.81
2019-05-17T12:20:30.889Z,13.88
2019-05-17T12:21:30.849Z,13.83
2019-05-17T12:22:30.820Z,13.87
2019-05-17T12:23:30.816Z,13.87
2019-05-17T12:24:30.800Z,13.95
2019-05-17T12:25:30.803Z,13.99
2019-05-17T12:26:30.762Z,14.01
2019-05-17T12:27:30.778Z,14.09
2019-05-17T12:28:30.761Z,14.14
2019-05-17T12:29:30.742Z,14.16
2019-05-17T12:30:30.717Z,14.12
2019-05-17T12:31:30.702Z,14.25
2019-05-17T12:32:30.762Z,14.17
2019-05-17T12:33:30.710Z,14.19
2019-05-17T12:34:30.670Z,14.27
2019-05-17T12:35:30.774Z,14.28
2019-05-17T12:36:30.738Z,14.31
2019-05-17T12:37:30.725Z,14.37
2019-05-17T12:38:30.762Z,14.35
2019-05-17T12:39:30.678Z,14.34
2019-05-17T12:40:30.605Z,14.44
2019-05-17T12:41:30.612Z,14.52
2019-05-17T12:42:30.619Z,14.62
2019-05-17T12:43:30.694Z,14.62
2019-05-17T12:44:30.571Z,14.56
2019-05-17T12:45:30.595Z,14.60
2019-05-17T12:46:30.546Z,14.57
2019-05-17T12:47:30.618Z,14.62
2019-05-17T12:48:30.550Z,14.72
2019-05-17T12:49:31.377Z,14.75
2019-05-17T12:50:30.571Z,14.80
2019-05-17T12:51:32.867Z,14.84
2019-05-17T12:52:30.484Z,14.78
2019-05-17T12:54:20.941Z,14.84
2019-05-17T12:55:20.945Z,14.88
2019-05-17T12:56:20.967Z,14.88
2019-05-17T12:57:20.855Z,14.71
2019-05-17T12:58:20.816Z,14.75
2019-05-17T12:59:20.787Z,14.91
2019-05-17T13:00:20.861Z,14.80
2019-05-17T13:01:20.760Z,14.91
2019-05-17T13:02:20.746Z,14.84
2019-05-17T13:03:21.545Z,14.90
2019-05-17T13:04:20.730Z,14.94
2019-05-17T13:05:20.748Z,14.81
2019-05-17T13:06:20.727Z,14.83
2019-05-17T13:07:20.691Z,14.86
2019-05-17T13:08:20.717Z,14.87
2019-05-17T13:09:20.685Z,14.88
2019-05-17T13:10:20.671Z,14.84
2019-05-17T13:11:20.655Z,14.94
2019-05-17T13:12:20.640Z,14.90
2019-05-17T13:13:20.664Z,14.95
2019-05-17T13:14:20.624Z,15.05
2019-05-17T13:15:28.312Z,14.99
2019-05-17T13:16:20.770Z,15.13
2019-05-17T13:17:20.721Z,15.02
2019-05-17T13:18:20.598Z,15.08
2019-05-17T13:19:20.623Z,15.12
2019-05-17T13:20:20.573Z,15.19
2019-05-17T13:21:20.542Z,15.21
2019-05-17T13:22:20.616Z,15.36
2019-05-17T13:23:20.521Z,15.39
2019-05-17T13:24:20.511Z,15.49
2019-05-17T13:25:20.509Z,15.59
2019-05-17T13:26:20.506Z,15.63
2019-05-17T13:27:20.609Z,15.63
2019-05-17T13:28:20.607Z,15.66
2019-05-17T13:29:20.470Z,15.64
2019-05-17T13:30:20.456Z,15.67
2019-05-17T13:31:20.455Z,15.79
2019-05-17T13:32:20.422Z,15.72
2019-05-17T13:33:20.453Z,15.86
2019-05-17T13:34:20.413Z,15.86
2019-05-17T13:35:20.406Z,15.93
2019-05-17T13:36:20.391Z,15.99
2019-05-17T13:37:20.378Z,15.94
2019-05-17T13:38:20.407Z,16.03
2019-05-17T13:39:27.112Z,16.01
2019-05-17T13:40:20.382Z,16.03
2019-05-17T13:41:20.329Z,16.03
2019-05-17T13:42:20.356Z,15.97
2019-05-17T13:43:20.366Z,15.99
2019-05-17T13:44:20.352Z,16.06
2019-05-17T13:45:20.342Z,16.14
2019-05-17T13:46:32.259Z,16.14
2019-05-17T13:47:21.281Z,16.09
2019-05-17T13:48:20.293Z,16.11
2019-05-17T13:49:20.261Z,16.07
2019-05-17T13:50:20.261Z,16.09
2019-05-17T13:51:20.227Z,16.16
2019-05-17T13:52:20.234Z,16.11
2019-05-17T13:53:20.204Z,16.14
2019-05-17T13:54:20.208Z,16.18
2019-05-17T13:55:20.228Z,16.18
2019-05-17T13:56:20.201Z,16.26
2019-05-17T13:57:20.175Z,16.31
2019-05-17T13:58:20.148Z,16.42
2019-05-17T13:59:20.170Z,16.49
2019-05-17T14:00:20.133Z,16.48
2019-05-17T14:01:20.240Z,16.55
2019-05-17T14:02:20.130Z,16.59
2019-05-17T14:03:20.134Z,16.68
2019-05-17T14:04:20.086Z,16.74
2019-05-17T14:05:20.086Z,16.75
2019-05-17T14:06:20.088Z,16.78
2019-05-17T14:07:20.103Z,16.78
2019-05-17T14:08:20.125Z,16.74
2019-05-17T14:09:20.047Z,16.73
2019-05-17T14:10:27.786Z,16.75
2019-05-17T14:11:21.063Z,16.74
2019-05-17T14:12:20.002Z,16.86
2019-05-17T14:13:19.996Z,16.78
2019-05-17T14:14:19.986Z,16.83
2019-05-17T14:15:20.029Z,16.85
2019-05-17T14:16:19.962Z,16.86
2019-05-17T14:17:19.977Z,16.90
2019-05-17T14:18:19.968Z,17.00
2019-05-17T14:19:19.953Z,17.04
2019-05-17T14:20:20.237Z,16.98
2019-05-17T14:21:19.922Z,16.99
2019-05-17T14:22:19.897Z,17.06
2019-05-17T14:23:19.879Z,17.10
2019-05-17T14:24:19.888Z,17.13
2019-05-17T14:25:19.888Z,17.14
2019-05-17T14:26:19.863Z,17.25
2019-05-17T14:27:19.872Z,17.23
2019-05-17T14:28:19.845Z,17.26
2019-05-17T14:29:19.821Z,17.22
2019-05-17T14:30:19.844Z,17.25
2019-05-17T14:31:19.873Z,17.18
2019-05-17T14:32:19.833Z,17.29
2019-05-17T14:33:19.782Z,17.40
2019-05-17T14:34:19.782Z,17.51
2019-05-17T14:35:19.807Z,17.36
2019-05-17T14:36:19.767Z,17.47
2019-05-17T14:37:19.783Z,17.44
2019-05-17T14:38:19.733Z,17.26
2019-05-17T14:39:19.734Z,17.36
2019-05-17T14:40:19.704Z,17.30
2019-05-17T14:41:19.735Z,17.35
2019-05-17T14:42:19.725Z,17.41
2019-05-17T14:43:19.703Z,17.44
2019-05-17T14:44:19.715Z,17.46
2019-05-17T14:45:19.650Z,17.47
2019-05-17T14:46:19.725Z,17.41
2019-05-17T14:47:19.630Z,17.38
2019-05-17T14:48:19.632Z,17.29
2019-05-17T14:49:19.683Z,17.38
2019-05-17T14:50:19.600Z,17.32
2019-05-17T14:51:19.611Z,17.46
2019-05-17T14:52:19.580Z,17.50
2019-05-17T14:53:19.582Z,17.48
2019-05-17T14:54:19.559Z,17.48
2019-05-17T14:55:19.553Z,17.44
2019-05-17T14:56:19.601Z,17.48
2019-05-17T14:57:19.568Z,17.46
2019-05-17T14:58:19.512Z,17.46
2019-05-17T14:59:19.491Z,17.63
2019-05-17T15:00:19.537Z,17.59
2019-05-17T15:01:19.572Z,17.67
2019-05-17T15:02:19.479Z,17.63
2019-05-17T15:03:19.469Z,17.64
2019-05-17T15:04:19.444Z,17.46
2019-05-17T15:05:19.470Z,17.46
2019-05-17T15:06:19.882Z,17.53
2019-05-17T15:07:19.621Z,17.48
2019-05-17T15:08:19.414Z,17.43
2019-05-17T15:09:19.420Z,17.30
2019-05-17T15:10:19.370Z,17.35
2019-05-17T15:11:19.505Z,17.29
2019-05-17T15:12:27.757Z,17.32
2019-05-17T15:13:20.367Z,17.28
2019-05-17T15:14:19.518Z,17.15
2019-05-17T15:15:25.638Z,17.28
2019-05-17T15:16:20.306Z,17.17
2019-05-17T15:17:19.389Z,17.14
2019-05-17T15:18:19.353Z,17.10
2019-05-17T15:19:19.551Z,17.13
2019-05-17T15:20:19.449Z,17.08
2019-05-17T15:21:19.255Z,17.00
2019-05-17T15:22:19.305Z,17.07
2019-05-17T15:23:20.071Z,17.04
2019-05-17T15:24:19.226Z,17.06
2019-05-17T15:25:19.221Z,16.98
2019-05-17T15:26:19.227Z,16.98
2019-05-17T15:27:19.389Z,17.07
2019-05-17T15:28:19.197Z,17.04
2019-05-17T15:29:19.192Z,17.03
2019-05-17T15:30:19.160Z,17.10
2019-05-17T15:31:19.159Z,17.10
2019-05-17T15:32:19.888Z,17.13
2019-05-17T15:33:20.077Z,17.20
2019-05-17T15:34:19.149Z,17.14
2019-05-17T15:35:20.043Z,17.18
2019-05-17T15:36:19.457Z,17.13
2019-05-17T15:37:19.394Z,17.17
2019-05-17T15:38:19.250Z,17.10
2019-05-17T15:39:19.617Z,17.14
2019-05-17T15:40:19.234Z,17.17
2019-05-17T15:41:22.692Z,17.17
2019-05-17T15:42:19.133Z,17.17
2019-05-17T15:43:19.039Z,17.14
2019-05-17T15:44:19.193Z,17.17
2019-05-17T15:45:19.096Z,17.08
2019-05-17T15:46:19.012Z,17.04
2019-05-17T15:47:19.180Z,17.08
2019-05-17T15:48:19.114Z,17.11
2019-05-17T15:49:19.041Z,17.08
2019-05-17T15:50:19.088Z,17.03
2019-05-17T15:51:19.031Z,16.98
2019-05-17T15:52:19.102Z,16.98
2019-05-17T15:53:19.271Z,17.07
2019-05-17T15:54:19.770Z,16.99
2019-05-17T15:55:20.156Z,17.03
2019-05-17T15:56:30.697Z,16.95
2019-05-17T15:57:19.890Z,17.08
2019-05-17T15:58:19.097Z,17.07
2019-05-17T15:59:19.009Z,17.10
2019-05-17T16:00:18.993Z,17.04
2019-05-17T16:01:18.941Z,17.10
2019-05-17T16:02:18.938Z,17.13
2019-05-17T16:03:19.164Z,17.06
2019-05-17T16:04:18.886Z,17.11
2019-05-17T16:05:19.086Z,17.14
2019-05-17T16:06:18.877Z,17.10
2019-05-17T16:07:18.771Z,17.15
2019-05-17T16:08:19.005Z,17.23
2019-05-17T16:09:19.123Z,17.25
2019-05-17T16:10:18.873Z,17.20
2019-05-17T16:11:18.745Z,17.23
2019-05-17T16:12:19.801Z,17.23
2019-05-17T16:13:18.852Z,17.25
2019-05-17T16:14:18.701Z,17.22
2019-05-17T16:15:18.709Z,17.18
2019-05-17T16:16:18.753Z,17.32
2019-05-17T16:17:19.484Z,17.33
2019-05-17T16:18:18.784Z,17.30
2019-05-17T16:19:19.233Z,17.29
2019-05-17T16:20:18.738Z,17.33
2019-05-17T16:23:56.127Z,17.38
2019-05-17T16:25:03.984Z,17.35
2019-05-17T16:27:13.071Z,17.28
2019-05-17T16:29:23.473Z,17.25
2019-05-17T16:31:38.929Z,17.33
2019-05-17T16:32:38.872Z,17.29
2019-05-17T16:33:39.053Z,17.26
2019-05-17T16:34:39.319Z,17.25
2019-05-17T16:36:55.237Z,17.29
2019-05-17T16:37:55.201Z,17.23
2019-05-17T16:38:56.434Z,17.23
2019-05-17T16:39:55.214Z,17.25
2019-05-17T16:40:55.018Z,17.28
2019-05-17T16:41:55.024Z,17.26
2019-05-17T16:42:55.008Z,17.23
2019-05-17T16:43:55.554Z,17.26
2019-05-17T16:45:56.159Z,17.22
2019-05-17T16:46:54.921Z,17.25
2019-05-17T16:47:54.997Z,17.22
2019-05-17T16:50:24.716Z,17.14
2019-05-17T16:51:24.055Z,17.10
2019-05-17T16:52:23.898Z,17.13
2019-05-17T16:53:23.828Z,17.20
2019-05-17T16:54:24.344Z,17.15
2019-05-17T16:55:26.123Z,17.17
2019-05-17T16:57:51.616Z,17.06
2019-05-17T16:58:53.042Z,17.11
2019-05-17T16:59:51.390Z,17.13
2019-05-17T17:00:51.728Z,17.13
2019-05-17T17:01:51.269Z,17.17
2019-05-17T17:02:51.113Z,17.13
2019-05-17T17:03:51.094Z,17.07
2019-05-17T17:04:51.147Z,17.08
2019-05-17T17:05:51.132Z,16.99
2019-05-17T17:06:51.747Z,17.04
2019-05-17T17:07:51.028Z,16.95
2019-05-17T17:08:51.022Z,17.00
2019-05-17T17:09:51.011Z,17.00
2019-05-17T17:10:51.100Z,17.00
2019-05-17T17:11:51.045Z,16.95
2019-05-17T17:12:51.065Z,17.06
2019-05-17T17:13:50.976Z,17.03
2019-05-17T17:14:51.036Z,17.06
2019-05-17T17:15:50.942Z,17.00
2019-05-17T17:16:50.953Z,16.99
2019-05-17T17:17:50.915Z,17.04
2019-05-17T17:18:50.958Z,17.10
2019-05-17T17:19:50.892Z,17.18
2019-05-17T17:20:50.877Z,17.15
2019-05-17T17:21:50.869Z,17.14
2019-05-17T17:22:50.927Z,17.25
2019-05-17T17:23:50.877Z,17.25
2019-05-17T17:24:50.873Z,17.26
2019-05-17T17:25:50.863Z,17.28
2019-05-17T17:26:50.825Z,17.20
2019-05-17T17:27:50.827Z,17.08
2019-05-17T17:28:50.817Z,17.14
2019-05-17T17:29:52.137Z,17.14
2019-05-17T17:30:57.196Z,17.06
2019-05-17T17:31:50.862Z,17.11
2019-05-17T17:32:50.760Z,17.11
2019-05-17T17:33:50.743Z,16.99
2019-05-17T17:34:50.742Z,17.03
2019-05-17T17:35:51.238Z,17.07
2019-05-17T17:36:50.709Z,17.04
2019-05-17T17:37:52.721Z,17.07
2019-05-17T17:38:52.236Z,16.98
2019-05-17T17:39:53.318Z,17.06
2019-05-17T17:40:50.668Z,17.00
2019-05-17T17:41:50.694Z,17.04
2019-05-17T17:42:50.681Z,16.92
2019-05-17T17:43:58.450Z,16.86
2019-05-17T17:44:51.817Z,16.81
2019-05-17T17:45:50.773Z,16.88
2019-05-17T17:46:50.624Z,16.77
2019-05-17T17:47:50.608Z,16.78
2019-05-17T17:48:50.620Z,16.78
2019-05-17T17:49:50.607Z,16.73
2019-05-17T17:50:50.607Z,16.77
2019-05-17T17:51:50.559Z,16.70
2019-05-17T17:52:50.598Z,16.70
2019-05-17T17:53:50.539Z,16.70
2019-05-17T17:54:50.533Z,16.68
2019-05-17T17:55:50.551Z,16.68
2019-05-17T17:56:50.509Z,16.68
2019-05-17T17:57:50.763Z,16.67
2019-05-17T17:58:50.538Z,16.63
2019-05-17T17:59:50.475Z,16.55
2019-05-17T18:00:50.507Z,16.58
2019-05-17T18:01:50.484Z,16.52
2019-05-17T18:02:50.452Z,16.59
2019-05-17T18:03:50.453Z,16.56
2019-05-17T18:04:50.437Z,16.63
2019-05-17T18:05:50.437Z,16.60
2019-05-17T18:06:50.448Z,16.63
2019-05-17T18:07:50.897Z,16.55
2019-05-17T18:08:50.408Z,16.53
2019-05-17T18:09:50.384Z,16.56
2019-05-17T18:10:50.382Z,16.59
2019-05-17T18:11:50.403Z,16.55
2019-05-17T18:12:50.343Z,16.53
2019-05-17T18:13:50.344Z,16.50
2019-05-17T18:14:50.351Z,16.52
2019-05-17T18:15:50.586Z,16.50
2019-05-17T18:16:50.332Z,16.42
2019-05-17T18:17:50.291Z,16.50
2019-05-17T18:18:50.419Z,16.48
2019-05-17T18:19:50.279Z,16.41
2019-05-17T18:20:50.286Z,16.37
2019-05-17T18:21:50.266Z,16.35
2019-05-17T18:22:50.255Z,16.38
2019-05-17T18:23:50.271Z,16.38
2019-05-17T18:24:50.247Z,16.35
2019-05-17T18:25:50.273Z,16.42
2019-05-17T18:26:50.220Z,16.50
2019-05-17T18:27:50.240Z,16.45
2019-05-17T18:28:50.174Z,16.37
2019-05-17T18:29:50.231Z,16.41
